Time;durP1;ratioP1;P1;durP2;ratioP2;P2;SDS_P1;SDS_P2;PMS_P1;PMS_P2;Temp;Humidity;BMP_temperature;BMP_pressure;BME280_temperature;BME280_humidity;BME280_pressure;Samples;Min_cycle;Max_cycle;Signal;HPM_P1;HPM_P2
2021/10/23 00:01:57;;;;;;;5.50;1.30;;;;;;;9.30;54.28;99149.78;5006380;28;20030;-60
2021/10/23 00:04:22;;;;;;;3.07;1.10;;;;;;;9.30;54.04;99154.06;5009655;28;20034;-59
2021/10/23 00:06:48;;;;;;;3.23;1.00;;;;;;;9.30;54.03;99148.94;5006233;28;20046;-60
2021/10/23 00:09:14;;;;;;;5.23;1.20;;;;;;;9.17;54.64;99143.91;5001440;28;20037;-61
2021/10/23 00:11:39;;;;;;;2.70;1.20;;;;;;;9.26;54.23;99150.66;5008709;28;20032;-60
2021/10/23 00:14:04;;;;;;;2.27;1.00;;;;;;;9.21;54.75;99162.63;5008937;28;20056;-60
2021/10/23 00:16:30;;;;;;;4.17;1.17;;;;;;;9.25;54.26;99153.25;5004393;28;20083;-60
2021/10/23 00:18:56;;;;;;;5.93;2.83;;;;;;;9.23;54.11;99155.81;5005297;28;20041;-60
2021/10/23 00:21:21;;;;;;;6.77;1.17;;;;;;;9.08;54.38;99156.72;5007843;28;20029;-58
2021/10/23 00:23:46;;;;;;;5.83;1.10;;;;;;;9.11;54.60;99166.97;5005441;28;20030;-59
2021/10/23 00:26:12;;;;;;;2.97;1.07;;;;;;;9.06;55.47;99166.13;5004464;28;20037;-57
2021/10/23 00:28:39;;;;;;;2.87;1.00;;;;;;;9.03;55.55;99171.25;5001946;28;20516;-60
2021/10/23 00:31:04;;;;;;;4.73;1.13;;;;;;;9.11;54.89;99179.75;5005785;28;20042;-61
2021/10/23 00:33:30;;;;;;;3.87;1.80;;;;;;;9.12;54.25;99172.94;5006162;28;20029;-58
2021/10/23 00:35:56;;;;;;;6.13;2.40;;;;;;;9.18;54.64;99173.75;5001402;28;20045;-57
2021/10/23 00:38:21;;;;;;;4.93;1.10;;;;;;;9.17;54.89;99191.66;5005856;28;20369;-60
2021/10/23 00:40:47;;;;;;;8.43;1.33;;;;;;;9.14;55.37;99184.84;5006280;28;20029;-61
2021/10/23 00:43:12;;;;;;;2.60;1.57;;;;;;;9.12;54.89;99181.44;5006858;28;20128;-61
2021/10/23 00:45:38;;;;;;;7.03;2.20;;;;;;;9.02;55.90;99166.16;5005402;28;20326;-60
2021/10/23 00:48:03;;;;;;;2.47;1.10;;;;;;;8.99;56.00;99178.94;5012674;28;20030;-61
2021/10/23 00:50:29;;;;;;;4.87;1.00;;;;;;;8.92;56.56;99190.91;5005279;28;20116;-60
2021/10/23 00:52:54;;;;;;;6.87;1.47;;;;;;;8.95;56.25;99188.34;5008460;28;20033;-61
2021/10/23 00:55:21;;;;;;;2.60;1.40;;;;;;;8.98;56.52;99184.91;5003630;28;20498;-58
2021/10/23 00:57:46;;;;;;;3.30;1.03;;;;;;;8.97;56.58;99183.22;5009678;28;20077;-60
2021/10/23 01:00:12;;;;;;;2.43;1.20;;;;;;;9.00;56.01;99181.50;5010898;28;20084;-60
2021/10/23 01:02:38;;;;;;;4.30;1.50;;;;;;;8.91;57.03;99204.53;5016554;28;20556;-57
2021/10/23 01:05:05;;;;;;;1.70;1.33;;;;;;;9.00;56.74;99193.41;5002635;28;20129;-58
2021/10/23 01:07:32;;;;;;;2.93;1.60;;;;;;;9.01;56.14;99195.97;5008399;28;20021;-57
2021/10/23 01:09:59;;;;;;;4.50;1.20;;;;;;;8.96;56.25;99196.84;5016861;28;20117;-58
2021/10/23 01:12:24;;;;;;;4.97;1.93;;;;;;;9.03;56.72;99186.63;5009654;28;20045;-58
2021/10/23 01:14:50;;;;;;;2.30;1.20;;;;;;;9.05;55.86;99195.13;5005889;28;20392;-57
2021/10/23 01:17:22;;;;;;;3.37;1.20;;;;;;;9.05;55.88;99197.66;5004225;28;20400;-59
2021/10/23 01:19:57;;;;;;;8.37;1.53;;;;;;;8.99;55.65;99202.81;5006084;28;20045;-59
2021/10/23 01:22:30;;;;;;;;;;;;;;;9.01;56.00;99188.31;5011041;28;20064;-58
2021/10/23 01:24:56;;;;;;;4.93;1.43;;;;;;;8.97;55.98;99193.44;5009319;28;19913;-57
2021/10/23 01:27:22;;;;;;;2.30;1.20;;;;;;;8.87;56.58;99184.94;5013007;28;20481;-57
2021/10/23 01:29:47;;;;;;;1.27;1.10;;;;;;;8.89;57.20;99197.72;5009141;28;20033;-59
2021/10/23 01:32:13;;;;;;;1.37;0.93;;;;;;;8.92;56.01;99197.72;5007974;28;20037;-59
2021/10/23 01:34:38;;;;;;;2.87;1.10;;;;;;;8.94;56.61;99204.53;5013471;28;20026;-60
2021/10/23 01:37:04;;;;;;;4.63;2.37;;;;;;;8.96;56.13;99201.97;5013498;28;20086;-59
2021/10/23 01:39:33;;;;;;;4.20;1.20;;;;;;;8.90;56.97;99210.53;5019244;28;20506;-56
2021/10/23 01:41:59;;;;;;;3.13;1.47;;;;;;;8.85;56.65;99209.69;5011561;28;20120;-57
2021/10/23 01:44:29;;;;;;;2.43;1.50;;;;;;;8.82;57.39;99209.69;5007269;28;20128;-57
2021/10/23 01:46:54;;;;;;;5.10;1.00;;;;;;;8.87;56.94;99213.06;5014687;28;20037;-55
2021/10/23 01:49:20;;;;;;;1.83;1.10;;;;;;;8.85;56.20;99213.94;5014592;28;20034;-58
2021/10/23 01:51:45;;;;;;;1.27;1.07;;;;;;;8.89;56.26;99211.38;5014680;28;20038;-57
2021/10/23 01:54:11;;;;;;;2.67;0.90;;;;;;;8.93;56.38;99210.50;5012606;28;20376;-59
2021/10/23 01:56:39;;;;;;;4.47;1.40;;;;;;;8.91;56.50;99221.59;5010715;28;20103;-58
2021/10/23 01:59:05;;;;;;;3.97;1.33;;;;;;;8.91;56.09;99219.88;5011136;28;20036;-55
2021/10/23 02:01:30;;;;;;;3.20;1.00;;;;;;;8.95;56.06;99206.25;5019705;28;20041;-58
2021/10/23 02:03:56;;;;;;;2.93;1.10;;;;;;;8.93;55.92;99213.06;5016563;28;20492;-59
2021/10/23 02:06:22;;;;;;;3.63;0.70;;;;;;;8.95;56.15;99205.41;5016187;28;20042;-56
2021/10/23 02:08:47;;;;;;;2.63;1.83;;;;;;;8.97;55.42;99211.34;5010111;28;20031;-56
2021/10/23 02:11:13;;;;;;;1.63;1.53;;;;;;;8.93;55.60;99197.72;5003948;28;20029;-56
2021/10/23 02:13:39;;;;;;;2.40;1.60;;;;;;;8.90;56.59;99207.97;5012252;28;20045;-56
2021/10/23 02:16:04;;;;;;;4.43;1.10;;;;;;;8.95;55.56;99216.47;5017966;28;20034;-55
2021/10/23 02:18:30;;;;;;;1.40;1.10;;;;;;;8.92;56.04;99226.69;5014552;28;20037;-55
2021/10/23 02:20:56;;;;;;;2.50;1.10;;;;;;;8.93;55.27;99223.28;5008309;28;20092;-55
2021/10/23 02:23:23;;;;;;;2.23;1.20;;;;;;;8.94;56.15;99221.59;5004970;28;20030;-55
2021/10/23 02:25:48;;;;;;;3.93;1.20;;;;;;;8.95;55.63;99220.75;5011810;28;20079;-55
2021/10/23 02:28:14;;;;;;;2.00;0.90;;;;;;;8.95;56.13;99220.75;5013375;28;20033;-56
2021/10/23 02:30:39;;;;;;;3.37;0.90;;;;;;;9.06;55.03;99234.34;5011195;28;20060;-59
2021/10/23 02:33:05;;;;;;;2.47;1.63;;;;;;;9.13;55.10;99224.06;5022631;28;20054;-57
2021/10/23 02:35:30;;;;;;;1.03;0.80;;;;;;;9.08;55.21;99228.34;5013605;28;20034;-56
2021/10/23 02:37:56;;;;;;;3.43;0.90;;;;;;;9.05;55.41;99233.47;5015134;28;20040;-57
2021/10/23 02:40:22;;;;;;;1.50;0.87;;;;;;;9.09;55.80;99242.84;5010150;28;20037;-58
2021/10/23 02:42:48;;;;;;;2.67;1.00;;;;;;;8.99;55.95;99236.06;5017982;28;20033;-59
2021/10/23 02:45:13;;;;;;;1.20;1.00;;;;;;;9.03;55.95;99242.03;5009119;28;20034;-59
2021/10/23 02:47:39;;;;;;;4.37;1.03;;;;;;;9.06;56.16;99242.84;5006292;28;20041;-59
2021/10/23 02:50:05;;;;;;;1.73;1.20;;;;;;;9.11;56.14;99256.50;5001976;28;20335;-57
2021/10/23 02:52:31;;;;;;;1.33;0.90;;;;;;;9.11;56.19;99243.69;5018196;28;20040;-57
2021/10/23 02:54:57;;;;;;;3.03;1.10;;;;;;;9.12;55.75;99244.56;5012965;28;20049;-59
2021/10/23 02:57:22;;;;;;;2.50;1.10;;;;;;;9.04;56.25;99244.56;5013179;28;20038;-56
2021/10/23 02:59:48;;;;;;;2.53;0.90;;;;;;;8.97;56.29;99236.91;5009433;28;20037;-57
2021/10/23 03:02:13;;;;;;;3.03;1.00;;;;;;;8.97;56.35;99237.75;5011151;28;20065;-58
2021/10/23 03:04:39;;;;;;;3.73;1.10;;;;;;;8.95;56.84;99247.16;5015169;28;20045;-59
2021/10/23 03:07:04;;;;;;;4.13;2.20;;;;;;;8.83;56.76;99246.31;5014422;28;20040;-58
2021/10/23 03:09:30;;;;;;;3.47;1.00;;;;;;;8.93;56.91;99245.44;5006475;28;20635;-59
2021/10/23 03:11:55;;;;;;;3.97;1.17;;;;;;;8.92;56.63;99243.75;5007036;28;20049;-56
2021/10/23 03:14:21;;;;;;;3.90;1.10;;;;;;;8.87;56.31;99238.63;5010088;28;20026;-58
2021/10/23 03:16:46;;;;;;;2.80;0.90;;;;;;;8.81;56.92;99238.66;5007917;28;20043;-56
2021/10/23 03:19:11;;;;;;;1.20;0.87;;;;;;;8.79;57.64;99235.25;5009642;28;20229;-55
2021/10/23 03:21:37;;;;;;;3.60;1.20;;;;;;;8.77;57.67;99244.63;5014491;28;20088;-58
2021/10/23 03:24:02;;;;;;;1.13;1.00;;;;;;;8.67;57.85;99242.94;5016482;28;20060;-60
2021/10/23 03:26:28;;;;;;;3.50;0.80;;;;;;;8.65;58.06;99250.63;5010013;28;20030;-59
2021/10/23 03:28:55;;;;;;;2.07;1.10;;;;;;;8.59;58.71;99247.22;5008918;28;20362;-60
2021/10/23 03:31:20;;;;;;;1.43;1.17;;;;;;;8.50;59.21;99252.34;5020712;28;20034;-59
2021/10/23 03:33:45;;;;;;;2.70;1.20;;;;;;;8.39;59.66;99256.59;5011808;28;20022;-60
2021/10/23 03:36:11;;;;;;;3.03;1.47;;;;;;;8.32;60.96;99255.75;5012616;28;20113;-60
2021/10/23 03:38:36;;;;;;;8.07;2.63;;;;;;;8.18;60.81;99258.28;5008728;28;20480;-59
2021/10/23 03:41:01;;;;;;;5.20;2.33;;;;;;;8.05;62.49;99263.38;5005599;28;20040;-59
2021/10/23 03:43:27;;;;;;;3.17;1.37;;;;;;;7.99;63.82;99273.56;5011632;28;20034;-58
2021/10/23 03:45:52;;;;;;;5.93;1.30;;;;;;;7.86;65.74;99262.47;5009875;28;20038;-60
2021/10/23 03:48:18;;;;;;;4.33;1.03;;;;;;;7.65;68.21;99270.09;5012547;28;20121;-59
2021/10/23 03:50:43;;;;;;;2.03;1.20;;;;;;;7.64;70.60;99271.78;5011037;28;20311;-58
2021/10/23 03:53:09;;;;;;;3.20;1.30;;;;;;;7.56;71.93;99282.81;5006923;28;20120;-58
2021/10/23 03:55:35;;;;;;;2.33;1.00;;;;;;;7.45;73.35;99284.47;5005574;28;20065;-58
2021/10/23 03:58:00;;;;;;;3.33;1.30;;;;;;;7.41;75.02;99285.31;5013444;28;20026;-57
2021/10/23 04:00:26;;;;;;;4.13;1.20;;;;;;;7.34;76.08;99287.81;5016146;28;20028;-56
2021/10/23 04:02:52;;;;;;;6.07;1.40;;;;;;;7.40;76.64;99283.59;5007639;28;20477;-59
2021/10/23 04:05:18;;;;;;;4.63;1.20;;;;;;;7.32;77.51;99284.44;5006257;28;20037;-58
2021/10/23 04:07:43;;;;;;;2.60;1.30;;;;;;;7.52;75.84;99294.72;5006294;28;20022;-57
2021/10/23 04:10:09;;;;;;;2.33;1.30;;;;;;;7.63;75.44;99293.06;5011082;28;20125;-56
2021/10/23 04:12:34;;;;;;;3.23;1.27;;;;;;;7.60;76.01;99292.19;5014540;28;20060;-59
2021/10/23 04:15:00;;;;;;;4.47;1.97;;;;;;;7.60;77.40;99295.59;5010228;28;20096;-57
2021/10/23 04:17:27;;;;;;;2.97;1.60;;;;;;;7.56;78.57;99309.19;5008370;28;20601;-59
2021/10/23 04:19:52;;;;;;;5.07;1.00;;;;;;;7.50;77.83;99308.31;5005873;28;20034;-58
2021/10/23 04:22:18;;;;;;;1.20;1.10;;;;;;;7.42;79.22;99307.44;5011950;28;20863;-59
2021/10/23 04:24:43;;;;;;;3.63;2.17;;;;;;;7.41;80.24;99315.94;5009166;28;20030;-56
2021/10/23 04:27:09;;;;;;;3.50;1.50;;;;;;;7.34;82.12;99323.53;5015504;28;20492;-58
2021/10/23 04:29:34;;;;;;;3.10;1.20;;;;;;;7.38;82.49;99315.91;5015221;28;20095;-58
2021/10/23 04:31:59;;;;;;;2.80;1.30;;;;;;;7.39;82.27;99321.00;5004111;28;20045;-59
2021/10/23 04:34:25;;;;;;;3.67;1.63;;;;;;;7.43;83.17;99326.97;5004237;28;20404;-56
2021/10/23 04:36:50;;;;;;;3.53;1.40;;;;;;;7.39;83.98;99332.91;5009906;28;20022;-60
2021/10/23 04:39:16;;;;;;;2.47;1.47;;;;;;;7.49;83.03;99322.78;5017440;28;20105;-56
2021/10/23 04:41:41;;;;;;;2.33;1.37;;;;;;;7.61;82.53;99327.06;5007166;28;20049;-57
2021/10/23 04:44:07;;;;;;;2.23;1.27;;;;;;;7.81;80.90;99333.94;5005860;28;20131;-57
2021/10/23 04:46:32;;;;;;;4.53;1.90;;;;;;;7.78;81.38;99330.53;5005753;28;20026;-59
2021/10/23 04:48:58;;;;;;;3.20;1.10;;;;;;;7.80;81.84;99334.81;5012205;28;20033;-57
2021/10/23 04:51:23;;;;;;;6.97;1.60;;;;;;;7.79;81.94;99339.91;5010273;28;20165;-60
2021/10/23 04:53:50;;;;;;;5.30;1.50;;;;;;;7.92;81.34;99343.34;5012053;28;20041;-57
2021/10/23 04:56:16;;;;;;;4.70;2.10;;;;;;;7.92;81.22;99333.97;5015186;28;20549;-55
2021/10/23 04:58:42;;;;;;;5.07;1.67;;;;;;;8.01;81.18;99334.00;5013017;28;20104;-56
2021/10/23 05:01:07;;;;;;;4.17;1.63;;;;;;;7.97;81.85;99342.50;5012174;28;20574;-55
2021/10/23 05:03:32;;;;;;;1.97;1.77;;;;;;;8.03;81.58;99337.41;5008585;28;20383;-54
2021/10/23 05:05:58;;;;;;;5.30;1.57;;;;;;;8.06;80.97;99347.63;5010233;28;20111;-56
2021/10/23 05:08:24;;;;;;;3.27;1.93;;;;;;;8.13;80.62;99349.38;5010419;28;20754;-57
2021/10/23 05:10:49;;;;;;;4.70;1.83;;;;;;;8.19;80.97;99349.34;5010464;28;20034;-56
2021/10/23 05:13:15;;;;;;;4.67;1.87;;;;;;;8.20;81.06;99357.88;5013000;28;20041;-56
2021/10/23 05:15:41;;;;;;;4.37;1.70;;;;;;;8.13;80.87;99345.94;5011674;28;20488;-58
2021/10/23 05:18:06;;;;;;;5.20;1.67;;;;;;;8.16;81.29;99364.69;5015833;28;20070;-56
2021/10/23 05:20:32;;;;;;;1.90;1.60;;;;;;;8.20;81.05;99360.44;5009287;28;20496;-55
2021/10/23 05:22:57;;;;;;;3.87;1.73;;;;;;;8.18;81.83;99373.22;5015254;28;20468;-55
2021/10/23 05:25:23;;;;;;;2.27;1.60;;;;;;;8.22;82.20;99367.25;5007139;28;20068;-56
2021/10/23 05:27:48;;;;;;;5.53;2.30;;;;;;;8.25;82.16;99377.47;5015480;28;20025;-58
2021/10/23 05:30:14;;;;;;;7.37;2.37;;;;;;;8.32;81.54;99369.88;5015574;28;20037;-56
2021/10/23 05:32:39;;;;;;;6.43;1.80;;;;;;;8.40;81.53;99378.41;5017651;28;20108;-57
2021/10/23 05:35:05;;;;;;;4.77;1.93;;;;;;;8.48;80.95;99382.69;5010405;28;20034;-57
2021/10/23 05:37:31;;;;;;;5.87;1.53;;;;;;;8.57;80.98;99376.72;5006169;28;20311;-59
2021/10/23 05:39:56;;;;;;;3.07;1.50;;;;;;;8.44;82.30;99378.41;5011038;28;20033;-57
2021/10/23 05:42:22;;;;;;;5.60;1.80;;;;;;;8.52;81.56;99380.97;5012119;28;20052;-58
2021/10/23 05:44:47;;;;;;;4.13;1.50;;;;;;;8.57;81.67;99392.06;5012816;28;20041;-58
2021/10/23 05:47:13;;;;;;;2.47;1.30;;;;;;;8.61;81.39;99392.03;5011270;28;20030;-58
2021/10/23 05:49:40;;;;;;;3.30;1.80;;;;;;;8.61;81.18;99392.03;5008198;28;20050;-56
2021/10/23 05:52:05;;;;;;;4.60;1.70;;;;;;;8.67;81.31;99392.06;5010798;28;20081;-58
2021/10/23 05:54:36;;;;;;;11.50;1.90;;;;;;;8.72;80.79;99399.72;5021019;28;20499;-58
2021/10/23 05:57:07;;;;;;;4.83;1.67;;;;;;;8.80;80.79;99397.16;5014060;28;20038;-58
2021/10/23 05:59:34;;;;;;;7.10;1.57;;;;;;;8.84;81.06;99397.16;5013070;28;20030;-58
2021/10/23 06:02:10;;;;;;;3.00;1.60;;;;;;;8.85;80.60;99398.03;5008050;28;20099;-58
2021/10/23 06:04:36;;;;;;;3.17;1.47;;;;;;;8.90;80.57;99412.53;5007205;28;20053;-56
2021/10/23 06:07:04;;;;;;;6.20;1.80;;;;;;;8.93;80.18;99406.53;5005050;28;20030;-56
2021/10/23 06:09:30;;;;;;;3.60;1.47;;;;;;;8.98;79.99;99420.19;5013254;28;20299;-56
2021/10/23 06:12:00;;;;;;;4.33;1.90;;;;;;;9.03;80.93;99416.78;5011386;28;20267;-57
2021/10/23 06:14:25;;;;;;;2.97;1.73;;;;;;;9.10;80.56;99433.84;5015614;28;20037;-55
2021/10/23 06:16:51;;;;;;;11.23;3.23;;;;;;;9.09;80.55;99438.94;4998641;28;20056;-57
2021/10/23 06:19:16;;;;;;;5.83;2.80;;;;;;;9.00;80.74;99439.78;5012261;28;20099;-56
2021/10/23 06:21:41;;;;;;;6.33;1.90;;;;;;;9.05;80.59;99447.47;5015941;28;20105;-56
2021/10/23 06:24:07;;;;;;;5.57;2.53;;;;;;;9.07;80.25;99445.78;5014270;28;20040;-56
2021/10/23 06:26:32;;;;;;;5.17;2.23;;;;;;;9.12;79.63;99451.75;5007735;28;20052;-59
2021/10/23 06:28:58;;;;;;;5.87;2.00;;;;;;;9.17;80.02;99461.09;5005891;28;20029;-58
2021/10/23 06:31:23;;;;;;;4.13;1.97;;;;;;;9.20;79.35;99465.38;5007813;28;20175;-59
2021/10/23 06:33:48;;;;;;;2.67;1.80;;;;;;;9.15;78.78;99470.50;5017374;28;20030;-59
2021/10/23 06:36:14;;;;;;;6.90;2.23;;;;;;;9.17;79.23;99478.16;5012687;28;20026;-59
2021/10/23 06:38:39;;;;;;;5.07;2.30;;;;;;;9.26;79.87;99483.28;5010730;28;20503;-56
2021/10/23 06:41:05;;;;;;;3.87;1.53;;;;;;;9.18;79.04;99477.31;5013419;28;20025;-58
2021/10/23 06:43:30;;;;;;;6.17;1.77;;;;;;;9.31;79.20;99496.06;5010325;28;20042;-59
2021/10/23 06:45:56;;;;;;;4.80;1.90;;;;;;;9.29;79.81;99492.69;5009091;28;20049;-57
2021/10/23 06:48:21;;;;;;;8.67;2.40;;;;;;;9.30;79.64;99500.34;5015483;28;20526;-60
2021/10/23 06:50:47;;;;;;;2.43;2.20;;;;;;;9.30;79.99;99495.22;5012701;28;20057;-60
2021/10/23 06:53:12;;;;;;;4.37;1.97;;;;;;;9.35;80.27;99508.00;5014464;28;20026;-58
2021/10/23 06:55:38;;;;;;;4.00;1.93;;;;;;;9.29;79.66;99520.81;5005662;28;20432;-58
2021/10/23 06:58:03;;;;;;;3.03;1.80;;;;;;;9.32;80.36;99520.81;5011947;28;20022;-56
2021/10/23 07:00:29;;;;;;;5.00;1.87;;;;;;;9.40;80.56;99526.78;5016214;28;20033;-58
2021/10/23 07:02:54;;;;;;;3.23;2.37;;;;;;;9.41;80.86;99525.94;5013286;28;20166;-55
2021/10/23 07:05:23;;;;;;;3.20;2.73;;;;;;;9.45;80.19;99533.63;5005687;28;20045;-59
2021/10/23 07:07:49;;;;;;;2.70;2.23;;;;;;;9.37;80.50;99534.47;5005197;28;20444;-58
2021/10/23 07:10:15;;;;;;;4.90;1.80;;;;;;;9.38;79.96;99554.91;5010373;28;20032;-59
2021/10/23 07:12:40;;;;;;;3.87;2.10;;;;;;;9.33;81.72;99551.53;5010191;28;20048;-60
2021/10/23 07:15:07;;;;;;;4.70;2.20;;;;;;;9.29;83.64;99554.09;5009621;28;20120;-58
2021/10/23 07:17:32;;;;;;;4.93;2.30;;;;;;;9.34;83.85;99555.78;5008463;28;20365;-55
2021/10/23 07:19:57;;;;;;;3.80;1.80;;;;;;;9.31;84.69;99549.81;5009659;28;20044;-56
2021/10/23 07:22:23;;;;;;;4.53;2.13;;;;;;;9.21;84.60;99555.78;5015984;28;20095;-56
2021/10/23 07:24:49;;;;;;;5.80;1.73;;;;;;;9.25;83.92;99570.28;5013849;28;20026;-58
2021/10/23 07:27:14;;;;;;;2.93;2.10;;;;;;;9.22;85.81;99570.25;5015983;28;20038;-59
2021/10/23 07:29:40;;;;;;;5.00;2.17;;;;;;;9.25;86.22;99568.56;5010200;28;20155;-58
2021/10/23 07:32:05;;;;;;;5.77;2.07;;;;;;;9.24;85.68;99572.00;5011282;28;20061;-55
2021/10/23 07:34:31;;;;;;;4.10;2.07;;;;;;;9.27;85.51;99571.13;5010181;28;20028;-59
2021/10/23 07:36:56;;;;;;;4.70;2.47;;;;;;;9.27;84.15;99571.13;5015259;28;20064;-58
2021/10/23 07:39:22;;;;;;;4.83;2.07;;;;;;;9.33;84.27;99560.91;5022814;28;20036;-59
2021/10/23 07:41:48;;;;;;;4.23;1.83;;;;;;;9.35;83.86;99566.88;5014343;28;20491;-56
2021/10/23 07:44:14;;;;;;;3.60;2.43;;;;;;;9.40;83.72;99581.38;5010962;28;20469;-60
2021/10/23 07:46:39;;;;;;;6.07;2.10;;;;;;;9.39;83.81;99572.00;5008911;28;20034;-59
2021/10/23 07:49:08;;;;;;;5.63;2.80;;;;;;;9.52;83.42;99580.53;5012514;28;20395;-58
2021/10/23 07:51:35;;;;;;;4.80;2.17;;;;;;;9.48;81.92;99587.38;5015216;28;20384;-59
2021/10/23 07:54:00;;;;;;;4.03;1.83;;;;;;;9.52;83.08;99578.84;5014429;28;20132;-55
2021/10/23 07:56:25;;;;;;;4.70;2.07;;;;;;;9.66;82.04;99589.09;5009959;28;20476;-56
2021/10/23 07:58:51;;;;;;;4.90;1.80;;;;;;;9.79;80.93;99593.34;5006745;28;20030;-60
2021/10/23 08:01:16;;;;;;;3.10;1.93;;;;;;;9.74;79.35;99592.50;5004653;28;20455;-58
2021/10/23 08:03:42;;;;;;;6.47;2.23;;;;;;;9.59;81.60;99597.59;5011991;28;20017;-54
2021/10/23 08:06:07;;;;;;;4.10;2.00;;;;;;;9.80;81.44;99607.00;5015225;28;20042;-56
2021/10/23 08:08:33;;;;;;;3.97;1.80;;;;;;;9.89;81.94;99602.72;5012796;28;20080;-57
2021/10/23 08:10:59;;;;;;;3.83;1.80;;;;;;;9.79;81.72;99606.16;5008452;28;20520;-59
2021/10/23 08:13:26;;;;;;;4.00;1.83;;;;;;;9.85;81.20;99618.94;5008327;28;20100;-59
2021/10/23 08:15:52;;;;;;;2.23;1.70;;;;;;;9.90;79.18;99612.09;5011625;28;20065;-58
2021/10/23 08:18:18;;;;;;;3.90;1.70;;;;;;;10.07;79.86;99615.50;5013886;28;20072;-56
2021/10/23 08:20:43;;;;;;;5.37;2.33;;;;;;;10.09;78.86;99615.53;5013200;28;20035;-58
2021/10/23 08:23:08;;;;;;;2.97;1.73;;;;;;;10.16;77.72;99619.81;5011951;28;20036;-54
2021/10/23 08:25:34;;;;;;;5.10;2.00;;;;;;;10.22;77.55;99611.25;5012717;28;20072;-57
2021/10/23 08:28:00;;;;;;;4.73;1.60;;;;;;;10.22;77.98;99611.25;5013899;28;20022;-60
2021/10/23 08:30:26;;;;;;;3.53;1.87;;;;;;;10.21;78.34;99607.84;5012757;28;20500;-59
2021/10/23 08:32:51;;;;;;;4.57;1.63;;;;;;;10.01;79.90;99607.81;5013716;28;20091;-59
2021/10/23 08:35:17;;;;;;;2.10;1.77;;;;;;;9.98;80.35;99615.53;5009676;28;20049;-59
2021/10/23 08:37:45;;;;;;;5.33;2.00;;;;;;;9.81;82.67;99629.19;5002579;28;20092;-60
2021/10/23 08:40:11;;;;;;;3.73;1.70;;;;;;;9.79;84.36;99626.63;5008061;28;20073;-61
2021/10/23 08:42:37;;;;;;;4.20;2.17;;;;;;;9.83;84.36;99625.78;5008834;28;20037;-61
2021/10/23 08:45:07;;;;;;;2.87;2.30;;;;;;;9.70;84.03;99630.91;5011351;28;20037;-59
2021/10/23 08:47:35;;;;;;;4.17;2.10;;;;;;;9.63;85.33;99640.28;5003757;28;20030;-59
2021/10/23 08:50:03;;;;;;;5.77;2.27;;;;;;;9.62;85.91;99636.88;5009465;28;20476;-59
2021/10/23 08:52:28;;;;;;;4.93;2.20;;;;;;;9.66;86.77;99637.72;5009226;28;20040;-58
2021/10/23 08:54:54;;;;;;;4.73;2.60;;;;;;;9.50;86.24;99629.19;5010773;28;20058;-61
2021/10/23 08:57:25;;;;;;;3.40;2.20;;;;;;;9.55;87.37;99635.13;5003803;28;20041;-60
2021/10/23 08:59:50;;;;;;;5.87;1.97;;;;;;;9.60;87.11;99636.00;5007192;28;20030;-60
2021/10/23 09:02:19;;;;;;;3.33;1.83;;;;;;;9.62;86.80;99633.47;5012996;28;20040;-59
2021/10/23 09:04:45;;;;;;;2.90;2.10;;;;;;;9.72;87.08;99624.09;5007007;28;20297;-60
2021/10/23 09:07:14;;;;;;;5.73;2.53;;;;;;;9.87;83.90;99624.06;5001516;28;20137;-61
2021/10/23 09:09:52;;;;;;;3.37;2.17;;;;;;;9.87;84.14;99621.50;5012155;28;20034;-61
2021/10/23 09:12:26;;;;;;;5.13;1.80;;;;;;;10.06;82.34;99624.03;5002683;28;20046;-60
2021/10/23 09:15:12;;;;;;;4.03;2.00;;;;;;;10.20;82.09;99629.19;5011687;28;20037;-59
2021/10/23 09:17:40;;;;;;;3.70;2.30;;;;;;;10.21;78.79;99633.47;5005697;28;20044;-59
2021/10/23 09:20:11;;;;;;;3.63;2.43;;;;;;;10.30;79.46;99633.47;5010341;28;20042;-59
2021/10/23 09:22:45;;;;;;;2.67;2.00;;;;;;;10.24;78.33;99630.03;5016163;28;20469;-60
2021/10/23 09:25:10;;;;;;;4.83;2.00;;;;;;;10.19;77.38;99630.03;5014487;28;20493;-60
2021/10/23 09:27:45;;;;;;;2.40;2.20;;;;;;;10.15;78.04;99630.91;5005815;28;20207;-59
2021/10/23 09:30:15;;;;;;;4.20;2.03;;;;;;;10.03;77.00;99643.69;5001728;28;20026;-59
2021/10/23 09:32:41;;;;;;;2.43;2.07;;;;;;;9.71;78.25;99648.84;5006477;28;20390;-55
2021/10/23 09:35:14;;;;;;;5.97;2.20;;;;;;;9.76;79.29;99653.97;5004270;28;20093;-60
2021/10/23 09:37:44;;;;;;;4.20;2.20;;;;;;;9.64;80.12;99654.78;5009093;28;20060;-60
2021/10/23 09:40:11;;;;;;;5.80;2.23;;;;;;;9.48;82.10;99653.06;5013400;28;20033;-61
2021/10/23 09:42:37;;;;;;;3.40;2.10;;;;;;;9.52;84.64;99652.19;5011007;28;20239;-61
2021/10/23 09:45:05;;;;;;;3.13;1.87;;;;;;;9.50;84.81;99652.22;5007256;28;20040;-59
2021/10/23 09:47:39;;;;;;;10.03;4.13;;;;;;;9.37;84.78;99655.59;5002491;28;20022;-60
2021/10/23 09:50:19;;;;;;;4.60;2.20;;;;;;;9.48;84.16;99653.06;5005857;28;20053;-60
2021/10/23 09:52:59;;;;;;;2.57;2.37;;;;;;;9.46;84.26;99659.91;5009504;28;20117;-59
2021/10/23 09:55:26;;;;;;;4.57;2.20;;;;;;;9.39;85.07;99655.59;5005160;28;20540;-59
2021/10/23 09:58:29;;;;;;;2.73;2.10;;;;;;;9.53;85.23;99661.59;5008857;28;20050;-60
2021/10/23 10:00:56;;;;;;;3.97;2.20;;;;;;;9.72;84.79;99652.25;5018417;28;20045;-61
2021/10/23 10:03:23;;;;;;;4.87;2.47;;;;;;;9.77;82.60;99640.28;5016457;28;20088;-61
2021/10/23 10:05:59;;;;;;;3.07;2.50;;;;;;;9.90;81.25;99644.56;5013822;28;20120;-61
2021/10/23 10:08:29;;;;;;;2.93;1.80;;;;;;;10.13;80.46;99647.13;5009550;28;20033;-61
2021/10/23 10:10:56;;;;;;;3.37;1.90;;;;;;;10.43;78.40;99649.66;5012632;28;20045;-61
2021/10/23 10:13:24;;;;;;;2.70;1.73;;;;;;;10.56;76.26;99647.94;5018022;28;20292;-66
2021/10/23 10:15:54;;;;;;;2.77;1.77;;;;;;;10.81;75.23;99652.97;5012287;28;20337;-61
2021/10/23 10:18:22;;;;;;;3.70;2.30;;;;;;;10.81;72.23;99663.25;5005609;28;20036;-61
2021/10/23 10:20:53;;;;;;;6.23;2.30;;;;;;;10.79;72.06;99653.81;5008156;28;20037;-60
2021/10/23 10:23:37;;;;;;;5.50;2.27;;;;;;;10.31;73.16;99650.53;5008671;28;20037;-62
2021/10/23 10:26:14;;;;;;;2.67;1.87;;;;;;;10.03;74.62;99659.94;5006732;28;20056;-60
2021/10/23 10:29:12;;;;;;;3.63;1.83;;;;;;;10.06;76.54;99649.66;5011744;28;20069;-61
2021/10/23 10:31:44;;;;;;;5.10;1.90;;;;;;;10.25;73.45;99642.00;5009491;28;20049;-60
2021/10/23 10:34:13;;;;;;;7.07;2.10;;;;;;;10.38;74.68;99646.25;5006546;28;20018;-59
2021/10/23 10:45:40;;;;;;;1.80;1.60;;;;;;;10.57;70.54;99645.34;5012623;28;20429;-58
2021/10/23 10:48:25;;;;;;;2.03;1.83;;;;;;;10.66;72.49;99640.19;5009061;28;20052;-59
2021/10/23 10:51:05;;;;;;;2.57;2.13;;;;;;;10.88;70.22;99646.97;5004457;28;20167;-59
2021/10/23 10:53:32;;;;;;;3.33;2.30;;;;;;;10.63;70.20;99637.66;5004285;28;20060;-59
2021/10/23 10:56:11;;;;;;;2.43;1.40;;;;;;;10.62;71.55;99650.47;5010030;28;20156;-59
2021/10/23 10:58:52;;;;;;;2.73;1.50;;;;;;;10.57;72.73;99667.56;5007874;28;20054;-59
2021/10/23 11:01:24;;;;;;;2.20;2.00;;;;;;;10.56;72.91;99661.59;5004813;28;20128;-57
2021/10/23 11:03:55;;;;;;;5.20;2.10;;;;;;;10.57;72.57;99678.66;5006248;28;20392;-54
2021/10/23 11:06:39;;;;;;;3.03;2.33;;;;;;;10.52;73.29;99654.78;5008387;28;20048;-56
2021/10/23 11:09:16;;;;;;;1.97;1.83;;;;;;;10.73;73.76;99659.00;5008250;28;20540;-60
2021/10/23 11:11:44;;;;;;;3.07;2.00;;;;;;;10.83;73.90;99660.66;5005910;28;20141;-59
2021/10/23 11:16:57;;;;;;;2.75;2.50;;;;;;;11.07;70.79;99654.59;5003208;28;20398;-58
2021/10/23 11:19:27;;;;;;;4.78;2.45;;;;;;;11.08;70.17;99644.28;5002236;28;20417;-57
2021/10/23 11:22:02;;;;;;;2.70;2.50;;;;;;;11.24;69.98;99645.09;5001130;28;20064;-59
2021/10/23 11:24:28;;;;;;;;;;;;;;;11.26;68.56;99633.09;5009158;28;20084;-58
2021/10/23 11:26:55;;;;;;;4.30;1.90;;;;;;;11.14;68.05;99638.28;5006767;28;19932;-54
2021/10/23 11:29:28;;;;;;;7.10;3.42;;;;;;;11.13;66.76;99639.13;5005051;28;20034;-57
2021/10/23 11:31:54;;;;;;;3.40;2.53;;;;;;;10.88;68.82;99634.13;5003148;28;20185;-58
2021/10/23 11:34:33;;;;;;;3.53;2.57;;;;;;;11.03;69.10;99646.06;5003200;28;20033;-59
2021/10/23 11:36:58;;;;;;;2.50;2.30;;;;;;;10.93;69.21;99642.66;5006506;28;20038;-58
2021/10/23 11:39:24;;;;;;;2.33;2.20;;;;;;;10.94;68.09;99646.94;5003309;28;21164;-60
2021/10/23 11:41:49;;;;;;;5.70;3.97;;;;;;;10.91;67.71;99646.06;5005562;28;20034;-56
2021/10/23 11:44:14;;;;;;;4.18;2.17;;;;;;;11.19;67.95;99646.81;5006142;28;20041;-60
2021/10/23 11:46:40;;;;;;;2.80;2.60;;;;;;;11.31;65.41;99632.19;5005119;28;20026;-59
2021/10/23 11:49:06;;;;;;;3.17;2.63;;;;;;;11.25;65.92;99623.66;5005293;28;20025;-59
2021/10/23 11:51:32;;;;;;;3.03;2.47;;;;;;;11.32;66.88;99631.34;5005065;28;20057;-57
2021/10/23 11:54:00;;;;;;;4.68;2.58;;;;;;;11.35;67.15;99645.88;5003864;28;20040;-58